Portada
METAR-TAF:

METAR-TAF

Aeroports :

Langlade County Airport

Antigo, Wisconsin, Estats Units d'Amèrica

latitud: 45-09-15N, longitud: 89-06-39W, altitud: 464 m

Observació

L'informe es va fer fa 23 minuts, a les 17:35 UTC
Vent 8 kt del Sud/Sud-Oest
Temperatura 18°C
Humitat 64%
Pressió 1022 hPa
Visibilitat: 16.1 km
Cel clar

METAR: KAIG 231735Z AUTO 20008KT 10SM CLR 18/11 A3017 RMK AO2 T01790106

Hora: 12:58 (17:58 UTC)


TAF: manca

Observacions i pronòstics meteorològics de més de 4000 aeroports (METAR i TAF).

Les estacions disponibles són els punts grocs i vermells al mapa.

Posi el ratolí al punt desitjat per veure el nom de l'estació.

Feu clic per veure les observacions i els pronòstics meteorològics.

Per canviar el mapa: feu clic els botons verds amb una creu de color negre per apropar; al botó verd amb un guió per allunyar la imatge; o en les fletxes verdes per a mapes adjacents.


METAR-TAF: